Terminal Aerodrome Forecast
Issued by NWS

Home | Current Version | Previous Version | Graphics & Text | Print | Product List | Glossary On
Versions: 1 2 3 4 5 6 7 8 9 10 11 12 13 14 15 16
689
FTUS43 KMPX 261125
TAFRNH
TAF
KRNH 261125Z 2612/2712 28014G20KT P6SM BKN120
     FM261600 29020G31KT P6SM BKN050
     FM262200 28015G23KT P6SM BKN050
     FM270200 29010KT P6SM BKN060=

USA.gov is the U.S. government's official web portal to all federal, state and local government web resources and services.